sensor_id;sensor_type;location;lat;lon;timestamp;temperature;humidity
16074;DHT22;8141;52.664;5.074;2023-05-10T00:00:25;20.60;64.90
16074;DHT22;8141;52.664;5.074;2023-05-10T00:02:50;20.60;65.00
16074;DHT22;8141;52.664;5.074;2023-05-10T00:05:16;20.60;64.90
16074;DHT22;8141;52.664;5.074;2023-05-10T00:07:42;20.60;64.90
16074;DHT22;8141;52.664;5.074;2023-05-10T00:10:10;20.70;65.00
16074;DHT22;8141;52.664;5.074;2023-05-10T00:12:36;20.70;64.90
16074;DHT22;8141;52.664;5.074;2023-05-10T00:15:03;20.70;65.00
16074;DHT22;8141;52.664;5.074;2023-05-10T00:17:29;20.70;65.00
16074;DHT22;8141;52.664;5.074;2023-05-10T00:19:55;20.70;65.30
16074;DHT22;8141;52.664;5.074;2023-05-10T00:22:20;20.70;65.20
16074;DHT22;8141;52.664;5.074;2023-05-10T00:24:46;20.70;65.20
16074;DHT22;8141;52.664;5.074;2023-05-10T00:27:12;20.80;65.40
16074;DHT22;8141;52.664;5.074;2023-05-10T00:29:38;20.80;65.40
16074;DHT22;8141;52.664;5.074;2023-05-10T00:32:03;20.80;65.40
16074;DHT22;8141;52.664;5.074;2023-05-10T00:34:29;20.80;65.40
16074;DHT22;8141;52.664;5.074;2023-05-10T00:36:56;20.80;65.30
16074;DHT22;8141;52.664;5.074;2023-05-10T00:39:21;20.80;65.40
16074;DHT22;8141;52.664;5.074;2023-05-10T00:41:47;20.80;65.50
16074;DHT22;8141;52.664;5.074;2023-05-10T00:44:13;20.90;65.50
16074;DHT22;8141;52.664;5.074;2023-05-10T00:46:39;20.90;65.40
16074;DHT22;8141;52.664;5.074;2023-05-10T00:49:05;20.80;65.70
16074;DHT22;8141;52.664;5.074;2023-05-10T00:51:31;20.90;65.50
16074;DHT22;8141;52.664;5.074;2023-05-10T00:53:57;20.90;65.50
16074;DHT22;8141;52.664;5.074;2023-05-10T00:56:24;20.90;65.50
16074;DHT22;8141;52.664;5.074;2023-05-10T00:58:51;20.90;65.40
16074;DHT22;8141;52.664;5.074;2023-05-10T01:01:16;20.90;65.30
16074;DHT22;8141;52.664;5.074;2023-05-10T01:03:42;20.90;65.30
16074;DHT22;8141;52.664;5.074;2023-05-10T01:06:09;20.90;65.40
16074;DHT22;8141;52.664;5.074;2023-05-10T01:08:36;20.90;65.30
16074;DHT22;8141;52.664;5.074;2023-05-10T01:11:02;20.90;65.40
16074;DHT22;8141;52.664;5.074;2023-05-10T01:13:37;20.90;65.40
16074;DHT22;8141;52.664;5.074;2023-05-10T01:16:05;20.90;65.50
16074;DHT22;8141;52.664;5.074;2023-05-10T01:18:37;21.00;65.50
16074;DHT22;8141;52.664;5.074;2023-05-10T01:30:45;21.00;65.40
16074;DHT22;8141;52.664;5.074;2023-05-10T01:33:30;21.00;65.40
16074;DHT22;8141;52.664;5.074;2023-05-10T01:36:13;21.00;65.50
16074;DHT22;8141;52.664;5.074;2023-05-10T01:39:05;21.00;65.60
16074;DHT22;8141;52.664;5.074;2023-05-10T01:44:30;21.10;65.60
16074;DHT22;8141;52.664;5.074;2023-05-10T01:47:09;21.00;65.40
16074;DHT22;8141;52.664;5.074;2023-05-10T01:49:49;21.10;65.60
16074;DHT22;8141;52.664;5.074;2023-05-10T01:52:18;21.10;65.60
16074;DHT22;8141;52.664;5.074;2023-05-10T01:54:55;21.10;65.70
16074;DHT22;8141;52.664;5.074;2023-05-10T01:57:26;21.10;65.60
16074;DHT22;8141;52.664;5.074;2023-05-10T01:59:53;21.10;65.60
16074;DHT22;8141;52.664;5.074;2023-05-10T02:02:21;21.10;65.70
16074;DHT22;8141;52.664;5.074;2023-05-10T02:04:49;21.10;65.80
16074;DHT22;8141;52.664;5.074;2023-05-10T02:07:16;21.10;66.20
16074;DHT22;8141;52.664;5.074;2023-05-10T02:09:44;21.10;66.00
16074;DHT22;8141;52.664;5.074;2023-05-10T02:12:14;21.10;66.10
16074;DHT22;8141;52.664;5.074;2023-05-10T02:14:41;21.10;65.90
16074;DHT22;8141;52.664;5.074;2023-05-10T02:17:08;21.10;65.90
16074;DHT22;8141;52.664;5.074;2023-05-10T02:19:37;21.10;65.90
16074;DHT22;8141;52.664;5.074;2023-05-10T02:22:05;21.10;65.80
16074;DHT22;8141;52.664;5.074;2023-05-10T02:24:33;21.10;66.00
16074;DHT22;8141;52.664;5.074;2023-05-10T02:27:00;21.10;65.90
16074;DHT22;8141;52.664;5.074;2023-05-10T02:29:28;21.20;66.10
16074;DHT22;8141;52.664;5.074;2023-05-10T02:31:55;21.10;66.00
16074;DHT22;8141;52.664;5.074;2023-05-10T02:34:23;21.10;66.20
16074;DHT22;8141;52.664;5.074;2023-05-10T02:36:52;21.20;66.20
16074;DHT22;8141;52.664;5.074;2023-05-10T02:39:19;21.20;66.30
16074;DHT22;8141;52.664;5.074;2023-05-10T02:41:48;21.20;66.30
16074;DHT22;8141;52.664;5.074;2023-05-10T02:44:15;21.20;66.30
16074;DHT22;8141;52.664;5.074;2023-05-10T02:46:43;21.20;66.10
16074;DHT22;8141;52.664;5.074;2023-05-10T02:49:09;21.20;66.10
16074;DHT22;8141;52.664;5.074;2023-05-10T02:51:37;21.20;66.20
16074;DHT22;8141;52.664;5.074;2023-05-10T02:54:18;21.20;66.00
16074;DHT22;8141;52.664;5.074;2023-05-10T02:56:49;21.20;66.00
16074;DHT22;8141;52.664;5.074;2023-05-10T02:59:16;21.20;66.10
16074;DHT22;8141;52.664;5.074;2023-05-10T03:01:42;21.30;66.00
16074;DHT22;8141;52.664;5.074;2023-05-10T03:04:08;21.20;65.90
16074;DHT22;8141;52.664;5.074;2023-05-10T03:06:34;21.30;66.00
16074;DHT22;8141;52.664;5.074;2023-05-10T03:09:00;21.30;65.90
16074;DHT22;8141;52.664;5.074;2023-05-10T03:11:58;21.30;65.90
16074;DHT22;8141;52.664;5.074;2023-05-10T03:20:47;21.20;66.20
16074;DHT22;8141;52.664;5.074;2023-05-10T03:25:43;21.30;66.20
16074;DHT22;8141;52.664;5.074;2023-05-10T03:28:09;21.20;66.10
16074;DHT22;8141;52.664;5.074;2023-05-10T03:30:36;21.30;66.30
16074;DHT22;8141;52.664;5.074;2023-05-10T03:33:05;21.30;66.10
16074;DHT22;8141;52.664;5.074;2023-05-10T03:35:31;21.30;66.20
16074;DHT22;8141;52.664;5.074;2023-05-10T03:37:57;21.30;66.30
16074;DHT22;8141;52.664;5.074;2023-05-10T03:40:24;21.30;66.40
16074;DHT22;8141;52.664;5.074;2023-05-10T03:42:50;21.30;66.30
16074;DHT22;8141;52.664;5.074;2023-05-10T03:45:15;21.30;66.40
16074;DHT22;8141;52.664;5.074;2023-05-10T03:47:41;21.30;66.20
16074;DHT22;8141;52.664;5.074;2023-05-10T03:50:07;21.30;66.50
16074;DHT22;8141;52.664;5.074;2023-05-10T03:52:33;21.30;66.30
16074;DHT22;8141;52.664;5.074;2023-05-10T03:54:59;21.30;66.40
16074;DHT22;8141;52.664;5.074;2023-05-10T03:57:25;21.30;66.40
16074;DHT22;8141;52.664;5.074;2023-05-10T03:59:50;21.30;66.40
16074;DHT22;8141;52.664;5.074;2023-05-10T04:02:16;21.30;66.50
16074;DHT22;8141;52.664;5.074;2023-05-10T04:04:42;21.30;66.40
16074;DHT22;8141;52.664;5.074;2023-05-10T04:07:07;21.30;66.40
16074;DHT22;8141;52.664;5.074;2023-05-10T04:09:35;21.30;66.30
16074;DHT22;8141;52.664;5.074;2023-05-10T04:12:00;21.30;66.40
16074;DHT22;8141;52.664;5.074;2023-05-10T04:14:27;21.30;66.30
16074;DHT22;8141;52.664;5.074;2023-05-10T04:16:53;21.30;66.40
16074;DHT22;8141;52.664;5.074;2023-05-10T04:19:19;21.30;66.50
16074;DHT22;8141;52.664;5.074;2023-05-10T04:21:44;21.30;66.50
16074;DHT22;8141;52.664;5.074;2023-05-10T04:24:10;21.30;66.50
16074;DHT22;8141;52.664;5.074;2023-05-10T04:26:36;21.40;66.60
16074;DHT22;8141;52.664;5.074;2023-05-10T04:29:02;21.40;66.60
16074;DHT22;8141;52.664;5.074;2023-05-10T04:31:27;21.40;66.50
16074;DHT22;8141;52.664;5.074;2023-05-10T04:33:53;21.40;66.40
16074;DHT22;8141;52.664;5.074;2023-05-10T04:36:19;21.30;66.40
16074;DHT22;8141;52.664;5.074;2023-05-10T04:38:44;21.40;66.40
16074;DHT22;8141;52.664;5.074;2023-05-10T04:41:11;21.40;66.30
16074;DHT22;8141;52.664;5.074;2023-05-10T04:43:37;21.40;66.40
16074;DHT22;8141;52.664;5.074;2023-05-10T04:46:04;21.40;66.50
16074;DHT22;8141;52.664;5.074;2023-05-10T04:48:30;21.40;67.10
16074;DHT22;8141;52.664;5.074;2023-05-10T04:50:56;21.40;67.00
16074;DHT22;8141;52.664;5.074;2023-05-10T04:53:22;21.30;66.40
16074;DHT22;8141;52.664;5.074;2023-05-10T04:55:49;21.40;66.60
16074;DHT22;8141;52.664;5.074;2023-05-10T04:58:15;21.40;66.40
16074;DHT22;8141;52.664;5.074;2023-05-10T05:00:40;21.40;66.50
16074;DHT22;8141;52.664;5.074;2023-05-10T05:03:07;21.40;66.60
16074;DHT22;8141;52.664;5.074;2023-05-10T05:05:32;21.40;66.40
16074;DHT22;8141;52.664;5.074;2023-05-10T05:07:58;21.40;66.40
16074;DHT22;8141;52.664;5.074;2023-05-10T05:10:24;21.40;66.40
16074;DHT22;8141;52.664;5.074;2023-05-10T05:12:49;21.40;66.40
16074;DHT22;8141;52.664;5.074;2023-05-10T05:15:15;21.40;66.40
16074;DHT22;8141;52.664;5.074;2023-05-10T05:17:42;21.40;66.60
16074;DHT22;8141;52.664;5.074;2023-05-10T05:20:09;21.40;66.40
16074;DHT22;8141;52.664;5.074;2023-05-10T05:22:36;21.40;66.30
16074;DHT22;8141;52.664;5.074;2023-05-10T05:25:02;21.40;66.30
16074;DHT22;8141;52.664;5.074;2023-05-10T05:27:29;21.40;66.20
16074;DHT22;8141;52.664;5.074;2023-05-10T05:29:58;21.40;66.20
16074;DHT22;8141;52.664;5.074;2023-05-10T05:32:24;21.40;66.20
16074;DHT22;8141;52.664;5.074;2023-05-10T05:34:51;21.40;66.20
16074;DHT22;8141;52.664;5.074;2023-05-10T05:37:20;21.40;66.40
16074;DHT22;8141;52.664;5.074;2023-05-10T05:39:47;21.40;66.30
16074;DHT22;8141;52.664;5.074;2023-05-10T05:42:13;21.40;66.30
16074;DHT22;8141;52.664;5.074;2023-05-10T05:44:40;21.40;66.30
16074;DHT22;8141;52.664;5.074;2023-05-10T05:47:06;21.40;66.30
16074;DHT22;8141;52.664;5.074;2023-05-10T05:49:32;21.40;66.30
16074;DHT22;8141;52.664;5.074;2023-05-10T05:52:02;21.40;66.30
16074;DHT22;8141;52.664;5.074;2023-05-10T05:54:29;21.40;66.30
16074;DHT22;8141;52.664;5.074;2023-05-10T05:56:59;21.40;66.80
16074;DHT22;8141;52.664;5.074;2023-05-10T05:59:26;21.40;66.30
16074;DHT22;8141;52.664;5.074;2023-05-10T06:01:52;21.40;66.10
16074;DHT22;8141;52.664;5.074;2023-05-10T06:04:18;21.50;66.30
16074;DHT22;8141;52.664;5.074;2023-05-10T06:06:44;21.40;66.10
16074;DHT22;8141;52.664;5.074;2023-05-10T06:09:10;21.50;66.20
16074;DHT22;8141;52.664;5.074;2023-05-10T06:11:36;21.40;66.30
16074;DHT22;8141;52.664;5.074;2023-05-10T06:14:03;21.50;66.20
16074;DHT22;8141;52.664;5.074;2023-05-10T06:16:30;21.50;66.20
16074;DHT22;8141;52.664;5.074;2023-05-10T06:18:56;21.40;66.20
16074;DHT22;8141;52.664;5.074;2023-05-10T06:21:22;21.40;66.20
16074;DHT22;8141;52.664;5.074;2023-05-10T06:23:48;21.40;66.20
16074;DHT22;8141;52.664;5.074;2023-05-10T06:26:13;21.40;66.10
16074;DHT22;8141;52.664;5.074;2023-05-10T06:28:39;21.50;66.20
16074;DHT22;8141;52.664;5.074;2023-05-10T06:31:06;21.50;66.30
16074;DHT22;8141;52.664;5.074;2023-05-10T06:33:32;21.50;66.80
16074;DHT22;8141;52.664;5.074;2023-05-10T06:35:58;21.50;66.10
16074;DHT22;8141;52.664;5.074;2023-05-10T06:38:24;21.50;66.00
16074;DHT22;8141;52.664;5.074;2023-05-10T06:40:51;21.50;66.10
16074;DHT22;8141;52.664;5.074;2023-05-10T06:43:16;21.50;66.10
16074;DHT22;8141;52.664;5.074;2023-05-10T06:45:42;21.40;66.00
16074;DHT22;8141;52.664;5.074;2023-05-10T06:48:08;21.50;66.10
16074;DHT22;8141;52.664;5.074;2023-05-10T06:50:34;21.50;66.10
16074;DHT22;8141;52.664;5.074;2023-05-10T06:53:00;21.50;66.10
16074;DHT22;8141;52.664;5.074;2023-05-10T06:55:29;21.50;66.10
16074;DHT22;8141;52.664;5.074;2023-05-10T06:57:55;21.50;66.10
16074;DHT22;8141;52.664;5.074;2023-05-10T07:00:21;21.50;65.90
16074;DHT22;8141;52.664;5.074;2023-05-10T07:02:47;21.50;66.10
16074;DHT22;8141;52.664;5.074;2023-05-10T07:05:13;21.50;65.90
16074;DHT22;8141;52.664;5.074;2023-05-10T07:07:39;21.50;66.10
16074;DHT22;8141;52.664;5.074;2023-05-10T07:10:05;21.50;66.00
16074;DHT22;8141;52.664;5.074;2023-05-10T07:12:32;21.50;65.90
16074;DHT22;8141;52.664;5.074;2023-05-10T07:14:58;21.50;65.90
16074;DHT22;8141;52.664;5.074;2023-05-10T07:17:24;21.50;65.90
16074;DHT22;8141;52.664;5.074;2023-05-10T07:19:49;21.50;66.00
16074;DHT22;8141;52.664;5.074;2023-05-10T07:22:16;21.50;66.10
16074;DHT22;8141;52.664;5.074;2023-05-10T07:24:42;21.40;65.40
16074;DHT22;8141;52.664;5.074;2023-05-10T07:27:08;21.30;65.30
16074;DHT22;8141;52.664;5.074;2023-05-10T07:29:35;21.20;65.30
16074;DHT22;8141;52.664;5.074;2023-05-10T07:32:01;21.20;65.60
16074;DHT22;8141;52.664;5.074;2023-05-10T07:34:27;21.20;65.60
16074;DHT22;8141;52.664;5.074;2023-05-10T07:36:53;21.10;66.40
16074;DHT22;8141;52.664;5.074;2023-05-10T07:39:19;21.10;66.60
16074;DHT22;8141;52.664;5.074;2023-05-10T07:41:47;21.10;66.70
16074;DHT22;8141;52.664;5.074;2023-05-10T07:44:13;21.00;66.70
16074;DHT22;8141;52.664;5.074;2023-05-10T07:46:39;21.00;66.50
16074;DHT22;8141;52.664;5.074;2023-05-10T07:49:05;21.00;66.30
16074;DHT22;8141;52.664;5.074;2023-05-10T07:51:31;21.00;66.40
16074;DHT22;8141;52.664;5.074;2023-05-10T07:53:57;20.90;66.20
16074;DHT22;8141;52.664;5.074;2023-05-10T07:56:30;20.90;66.10
16074;DHT22;8141;52.664;5.074;2023-05-10T07:59:01;20.90;66.30
16074;DHT22;8141;52.664;5.074;2023-05-10T08:01:33;20.90;66.00
16074;DHT22;8141;52.664;5.074;2023-05-10T08:04:00;20.90;66.00
16074;DHT22;8141;52.664;5.074;2023-05-10T08:06:27;20.80;65.90
16074;DHT22;8141;52.664;5.074;2023-05-10T08:08:55;20.80;65.90
16074;DHT22;8141;52.664;5.074;2023-05-10T08:11:21;20.80;65.80
16074;DHT22;8141;52.664;5.074;2023-05-10T08:13:48;20.80;65.80
16074;DHT22;8141;52.664;5.074;2023-05-10T08:16:15;20.80;65.80
16074;DHT22;8141;52.664;5.074;2023-05-10T08:18:41;20.80;66.50
16074;DHT22;8141;52.664;5.074;2023-05-10T08:21:07;20.80;65.70
16074;DHT22;8141;52.664;5.074;2023-05-10T08:23:33;20.80;65.80
16074;DHT22;8141;52.664;5.074;2023-05-10T08:25:59;20.70;65.60
16074;DHT22;8141;52.664;5.074;2023-05-10T08:28:25;20.80;65.60
16074;DHT22;8141;52.664;5.074;2023-05-10T08:30:51;20.70;65.40
16074;DHT22;8141;52.664;5.074;2023-05-10T08:33:20;20.80;65.60
16074;DHT22;8141;52.664;5.074;2023-05-10T08:35:46;20.80;65.60
16074;DHT22;8141;52.664;5.074;2023-05-10T08:38:12;20.70;65.70
16074;DHT22;8141;52.664;5.074;2023-05-10T08:40:39;20.70;65.50
16074;DHT22;8141;52.664;5.074;2023-05-10T08:43:09;20.70;65.40
16074;DHT22;8141;52.664;5.074;2023-05-10T08:45:41;20.70;65.60
16074;DHT22;8141;52.664;5.074;2023-05-10T08:48:09;20.60;65.30
16074;DHT22;8141;52.664;5.074;2023-05-10T08:50:37;20.70;65.40
16074;DHT22;8141;52.664;5.074;2023-05-10T08:53:10;20.70;66.00
16074;DHT22;8141;52.664;5.074;2023-05-10T08:55:37;20.70;65.30
16074;DHT22;8141;52.664;5.074;2023-05-10T08:58:07;20.70;65.30
16074;DHT22;8141;52.664;5.074;2023-05-10T09:00:33;20.70;65.50
16074;DHT22;8141;52.664;5.074;2023-05-10T09:03:01;20.70;65.30
16074;DHT22;8141;52.664;5.074;2023-05-10T09:05:27;20.70;65.50
16074;DHT22;8141;52.664;5.074;2023-05-10T09:07:53;20.70;65.30
16074;DHT22;8141;52.664;5.074;2023-05-10T09:10:20;20.70;65.10
16074;DHT22;8141;52.664;5.074;2023-05-10T09:12:46;20.70;65.20
16074;DHT22;8141;52.664;5.074;2023-05-10T09:15:15;20.70;65.10
16074;DHT22;8141;52.664;5.074;2023-05-10T09:17:42;20.80;65.10
16074;DHT22;8141;52.664;5.074;2023-05-10T09:20:09;20.80;64.90
16074;DHT22;8141;52.664;5.074;2023-05-10T09:22:35;20.80;65.00
16074;DHT22;8141;52.664;5.074;2023-05-10T09:25:05;20.80;64.80
16074;DHT22;8141;52.664;5.074;2023-05-10T09:27:32;20.70;65.00
16074;DHT22;8141;52.664;5.074;2023-05-10T09:29:58;20.80;64.80
16074;DHT22;8141;52.664;5.074;2023-05-10T09:32:44;20.70;64.80
16074;DHT22;8141;52.664;5.074;2023-05-10T09:35:16;20.70;64.70
16074;DHT22;8141;52.664;5.074;2023-05-10T09:37:45;20.70;64.80
16074;DHT22;8141;52.664;5.074;2023-05-10T09:40:20;20.80;64.50
16074;DHT22;8141;52.664;5.074;2023-05-10T09:43:03;20.70;64.50
16074;DHT22;8141;52.664;5.074;2023-05-10T09:45:31;20.70;64.50
16074;DHT22;8141;52.664;5.074;2023-05-10T09:47:58;20.80;64.50
16074;DHT22;8141;52.664;5.074;2023-05-10T09:50:25;20.70;64.30
16074;DHT22;8141;52.664;5.074;2023-05-10T09:53:00;20.70;64.50
16074;DHT22;8141;52.664;5.074;2023-05-10T09:55:42;20.70;65.10
16074;DHT22;8141;52.664;5.074;2023-05-10T09:58:14;20.70;65.00
16074;DHT22;8141;52.664;5.074;2023-05-10T10:00:42;20.70;64.50
16074;DHT22;8141;52.664;5.074;2023-05-10T10:03:20;20.70;64.60
16074;DHT22;8141;52.664;5.074;2023-05-10T10:05:47;20.70;64.60
16074;DHT22;8141;52.664;5.074;2023-05-10T10:08:14;20.70;64.60
16074;DHT22;8141;52.664;5.074;2023-05-10T10:10:41;20.70;64.50
16074;DHT22;8141;52.664;5.074;2023-05-10T10:13:09;20.80;64.40
16074;DHT22;8141;52.664;5.074;2023-05-10T10:15:35;20.70;64.40
16074;DHT22;8141;52.664;5.074;2023-05-10T10:18:01;20.80;64.40
16074;DHT22;8141;52.664;5.074;2023-05-10T10:20:29;20.70;64.40
16074;DHT22;8141;52.664;5.074;2023-05-10T10:22:54;20.70;64.40
16074;DHT22;8141;52.664;5.074;2023-05-10T10:25:21;20.70;64.50
16074;DHT22;8141;52.664;5.074;2023-05-10T10:33:13;20.70;64.50
16074;DHT22;8141;52.664;5.074;2023-05-10T10:35:53;20.70;64.50
16074;DHT22;8141;52.664;5.074;2023-05-10T10:38:20;20.70;64.60
16074;DHT22;8141;52.664;5.074;2023-05-10T10:40:47;20.70;64.30
16074;DHT22;8141;52.664;5.074;2023-05-10T10:43:29;20.80;64.40
16074;DHT22;8141;52.664;5.074;2023-05-10T10:48:37;20.80;64.20
16074;DHT22;8141;52.664;5.074;2023-05-10T10:51:03;20.80;64.20
16074;DHT22;8141;52.664;5.074;2023-05-10T10:53:29;20.80;64.00
16074;DHT22;8141;52.664;5.074;2023-05-10T10:56:25;20.80;64.20
16074;DHT22;8141;52.664;5.074;2023-05-10T10:58:51;20.80;64.20
16074;DHT22;8141;52.664;5.074;2023-05-10T11:01:19;20.80;64.20
16074;DHT22;8141;52.664;5.074;2023-05-10T11:06:29;20.80;64.10
16074;DHT22;8141;52.664;5.074;2023-05-10T11:08:57;20.80;64.00
16074;DHT22;8141;52.664;5.074;2023-05-10T11:11:23;20.80;64.20
16074;DHT22;8141;52.664;5.074;2023-05-10T11:13:49;20.80;64.20
16074;DHT22;8141;52.664;5.074;2023-05-10T11:16:20;20.80;64.20
16074;DHT22;8141;52.664;5.074;2023-05-10T11:19:05;20.90;64.50
16074;DHT22;8141;52.664;5.074;2023-05-10T11:21:33;20.90;64.40
16074;DHT22;8141;52.664;5.074;2023-05-10T11:24:01;20.80;64.30
16074;DHT22;8141;52.664;5.074;2023-05-10T11:26:33;20.90;64.40
16074;DHT22;8141;52.664;5.074;2023-05-10T11:29:00;20.90;64.50
16074;DHT22;8141;52.664;5.074;2023-05-10T11:31:28;20.90;64.30
16074;DHT22;8141;52.664;5.074;2023-05-10T11:33:58;20.90;64.50
16074;DHT22;8141;52.664;5.074;2023-05-10T11:36:27;20.90;64.40
16074;DHT22;8141;52.664;5.074;2023-05-10T11:38:56;20.90;64.60
16074;DHT22;8141;52.664;5.074;2023-05-10T11:41:23;20.90;64.40
16074;DHT22;8141;52.664;5.074;2023-05-10T11:43:51;20.90;64.40
16074;DHT22;8141;52.664;5.074;2023-05-10T11:46:19;21.00;63.90
16074;DHT22;8141;52.664;5.074;2023-05-10T11:48:50;21.00;63.80
16074;DHT22;8141;52.664;5.074;2023-05-10T11:51:22;21.00;63.80
16074;DHT22;8141;52.664;5.074;2023-05-10T11:53:50;21.00;63.90
16074;DHT22;8141;52.664;5.074;2023-05-10T11:56:18;21.00;63.80
16074;DHT22;8141;52.664;5.074;2023-05-10T11:58:44;21.00;63.80
16074;DHT22;8141;52.664;5.074;2023-05-10T12:01:10;21.00;63.70
16074;DHT22;8141;52.664;5.074;2023-05-10T12:03:37;21.00;63.80
16074;DHT22;8141;52.664;5.074;2023-05-10T12:06:03;21.00;63.60
16074;DHT22;8141;52.664;5.074;2023-05-10T12:08:30;21.00;63.40
16074;DHT22;8141;52.664;5.074;2023-05-10T12:11:07;21.00;63.40
16074;DHT22;8141;52.664;5.074;2023-05-10T12:13:41;21.00;63.40
16074;DHT22;8141;52.664;5.074;2023-05-10T12:16:18;21.00;63.50
16074;DHT22;8141;52.664;5.074;2023-05-10T12:18:48;21.00;63.20
16074;DHT22;8141;52.664;5.074;2023-05-10T12:21:17;21.10;63.20
16074;DHT22;8141;52.664;5.074;2023-05-10T12:23:46;21.00;63.40
16074;DHT22;8141;52.664;5.074;2023-05-10T12:26:14;21.00;63.00
16074;DHT22;8141;52.664;5.074;2023-05-10T12:28:40;21.10;63.20
16074;DHT22;8141;52.664;5.074;2023-05-10T12:31:06;21.10;63.30
16074;DHT22;8141;52.664;5.074;2023-05-10T12:33:39;21.00;63.10
16074;DHT22;8141;52.664;5.074;2023-05-10T12:36:12;21.00;63.20
16074;DHT22;8141;52.664;5.074;2023-05-10T12:38:40;21.00;62.90
16074;DHT22;8141;52.664;5.074;2023-05-10T12:41:15;21.00;63.00
16074;DHT22;8141;52.664;5.074;2023-05-10T12:43:41;21.00;63.10
16074;DHT22;8141;52.664;5.074;2023-05-10T12:46:11;21.00;63.00
16074;DHT22;8141;52.664;5.074;2023-05-10T12:48:39;21.00;63.20
16074;DHT22;8141;52.664;5.074;2023-05-10T12:51:06;21.00;62.90
16074;DHT22;8141;52.664;5.074;2023-05-10T12:53:37;21.10;62.90
16074;DHT22;8141;52.664;5.074;2023-05-10T12:56:03;21.00;62.90
16074;DHT22;8141;52.664;5.074;2023-05-10T12:58:29;21.00;63.00
16074;DHT22;8141;52.664;5.074;2023-05-10T13:00:55;21.00;63.00
16074;DHT22;8141;52.664;5.074;2023-05-10T13:03:22;21.10;63.10
16074;DHT22;8141;52.664;5.074;2023-05-10T13:05:48;21.10;63.00
16074;DHT22;8141;52.664;5.074;2023-05-10T13:08:14;21.10;62.90
16074;DHT22;8141;52.664;5.074;2023-05-10T13:10:40;21.10;62.90
16074;DHT22;8141;52.664;5.074;2023-05-10T13:13:06;21.00;62.80
16074;DHT22;8141;52.664;5.074;2023-05-10T13:15:32;21.10;62.60
16074;DHT22;8141;52.664;5.074;2023-05-10T13:17:58;21.10;62.70
16074;DHT22;8141;52.664;5.074;2023-05-10T13:20:25;21.10;62.80
16074;DHT22;8141;52.664;5.074;2023-05-10T13:22:50;21.10;62.70
16074;DHT22;8141;52.664;5.074;2023-05-10T13:25:16;21.10;62.80
16074;DHT22;8141;52.664;5.074;2023-05-10T13:27:42;21.10;63.00
16074;DHT22;8141;52.664;5.074;2023-05-10T13:30:08;21.10;62.90
16074;DHT22;8141;52.664;5.074;2023-05-10T13:32:35;21.10;62.80
16074;DHT22;8141;52.664;5.074;2023-05-10T13:35:01;21.10;62.90
16074;DHT22;8141;52.664;5.074;2023-05-10T13:37:29;21.10;62.80
16074;DHT22;8141;52.664;5.074;2023-05-10T13:39:55;21.10;62.80
16074;DHT22;8141;52.664;5.074;2023-05-10T13:42:22;21.10;62.60
16074;DHT22;8141;52.664;5.074;2023-05-10T13:44:49;21.10;62.80
16074;DHT22;8141;52.664;5.074;2023-05-10T13:47:15;21.10;62.70
16074;DHT22;8141;52.664;5.074;2023-05-10T13:49:41;21.10;62.70
16074;DHT22;8141;52.664;5.074;2023-05-10T13:52:06;21.10;62.60
16074;DHT22;8141;52.664;5.074;2023-05-10T13:54:33;21.10;62.50
16074;DHT22;8141;52.664;5.074;2023-05-10T13:56:59;21.10;62.60
16074;DHT22;8141;52.664;5.074;2023-05-10T13:59:25;21.20;62.60
16074;DHT22;8141;52.664;5.074;2023-05-10T14:01:51;21.20;62.40
16074;DHT22;8141;52.664;5.074;2023-05-10T14:04:17;21.10;62.40
16074;DHT22;8141;52.664;5.074;2023-05-10T14:06:42;21.20;62.50
16074;DHT22;8141;52.664;5.074;2023-05-10T14:09:08;21.10;62.60
16074;DHT22;8141;52.664;5.074;2023-05-10T14:11:34;21.20;62.40
16074;DHT22;8141;52.664;5.074;2023-05-10T14:13:59;21.20;62.40
16074;DHT22;8141;52.664;5.074;2023-05-10T14:16:25;21.10;62.20
16074;DHT22;8141;52.664;5.074;2023-05-10T14:18:52;21.20;62.30
16074;DHT22;8141;52.664;5.074;2023-05-10T14:21:18;21.10;62.00
16074;DHT22;8141;52.664;5.074;2023-05-10T14:23:43;21.10;62.00
16074;DHT22;8141;52.664;5.074;2023-05-10T14:26:09;21.10;62.30
16074;DHT22;8141;52.664;5.074;2023-05-10T14:28:35;21.10;62.00
16074;DHT22;8141;52.664;5.074;2023-05-10T14:31:01;21.10;62.00
16074;DHT22;8141;52.664;5.074;2023-05-10T14:33:27;21.10;61.80
16074;DHT22;8141;52.664;5.074;2023-05-10T14:35:53;21.10;61.90
16074;DHT22;8141;52.664;5.074;2023-05-10T14:38:22;21.10;61.90
16074;DHT22;8141;52.664;5.074;2023-05-10T14:40:47;21.10;61.90
16074;DHT22;8141;52.664;5.074;2023-05-10T14:43:13;21.10;62.10
16074;DHT22;8141;52.664;5.074;2023-05-10T14:45:39;21.10;61.90
16074;DHT22;8141;52.664;5.074;2023-05-10T14:48:05;21.10;61.70
16074;DHT22;8141;52.664;5.074;2023-05-10T14:50:31;21.10;61.70
16074;DHT22;8141;52.664;5.074;2023-05-10T14:52:57;21.10;61.40
16074;DHT22;8141;52.664;5.074;2023-05-10T14:55:24;21.10;61.40
16074;DHT22;8141;52.664;5.074;2023-05-10T14:57:50;21.10;61.50
16074;DHT22;8141;52.664;5.074;2023-05-10T15:00:16;21.10;61.50
16074;DHT22;8141;52.664;5.074;2023-05-10T15:02:43;21.10;61.30
16074;DHT22;8141;52.664;5.074;2023-05-10T15:05:09;21.10;61.50
16074;DHT22;8141;52.664;5.074;2023-05-10T15:07:35;21.10;61.50
16074;DHT22;8141;52.664;5.074;2023-05-10T15:10:01;21.10;61.50
16074;DHT22;8141;52.664;5.074;2023-05-10T15:12:26;21.10;61.10
16074;DHT22;8141;52.664;5.074;2023-05-10T15:14:52;21.10;61.20
16074;DHT22;8141;52.664;5.074;2023-05-10T15:17:18;21.10;61.20
16074;DHT22;8141;52.664;5.074;2023-05-10T15:19:44;21.10;61.20
16074;DHT22;8141;52.664;5.074;2023-05-10T15:22:10;21.10;61.10
16074;DHT22;8141;52.664;5.074;2023-05-10T15:24:35;21.10;61.30
16074;DHT22;8141;52.664;5.074;2023-05-10T15:27:01;21.10;61.20
16074;DHT22;8141;52.664;5.074;2023-05-10T15:29:27;21.10;61.20
16074;DHT22;8141;52.664;5.074;2023-05-10T15:31:52;21.10;61.00
16074;DHT22;8141;52.664;5.074;2023-05-10T15:34:18;21.10;60.90
16074;DHT22;8141;52.664;5.074;2023-05-10T15:36:44;21.10;61.10
16074;DHT22;8141;52.664;5.074;2023-05-10T15:39:10;21.10;61.20
16074;DHT22;8141;52.664;5.074;2023-05-10T15:41:37;21.10;61.00
16074;DHT22;8141;52.664;5.074;2023-05-10T15:44:03;21.10;61.20
16074;DHT22;8141;52.664;5.074;2023-05-10T15:46:29;21.10;62.00
16074;DHT22;8141;52.664;5.074;2023-05-10T15:48:55;21.10;60.80
16074;DHT22;8141;52.664;5.074;2023-05-10T15:51:21;21.10;60.80
16074;DHT22;8141;52.664;5.074;2023-05-10T15:53:47;21.10;60.90
16074;DHT22;8141;52.664;5.074;2023-05-10T15:56:13;21.10;61.00
16074;DHT22;8141;52.664;5.074;2023-05-10T15:58:40;21.10;61.20
16074;DHT22;8141;52.664;5.074;2023-05-10T16:01:06;21.10;61.30
16074;DHT22;8141;52.664;5.074;2023-05-10T16:03:33;21.10;61.20
16074;DHT22;8141;52.664;5.074;2023-05-10T16:05:59;21.10;61.20
16074;DHT22;8141;52.664;5.074;2023-05-10T16:08:26;21.10;61.10
16074;DHT22;8141;52.664;5.074;2023-05-10T16:10:52;21.10;61.40
16074;DHT22;8141;52.664;5.074;2023-05-10T16:13:18;21.10;61.00
16074;DHT22;8141;52.664;5.074;2023-05-10T16:15:44;21.10;61.30
16074;DHT22;8141;52.664;5.074;2023-05-10T16:18:10;21.10;61.40